Time;durP1;ratioP1;P1;durP2;ratioP2;P2;SDS_P1;SDS_P2;PMS_P1;PMS_P2;Temp;Humidity;BMP_temperature;BMP_pressure;BME280_temperature;BME280_humidity;BME280_pressure;Samples;Min_cycle;Max_cycle;Signal;HPM_P1;HPM_P2
2021/08/04 15:29:41;;;;;;;0.17;0.17;;;;;;;16.11;83.00;100851.13;5083421;27;20473;-86
2021/08/04 15:32:15;;;;;;;0.13;0.13;;;;;;;16.10;82.96;100841.31;5030671;28;101536;-87
2021/08/04 15:34:48;;;;;;;0.20;0.20;;;;;;;16.26;83.41;100852.69;5041522;28;20056;-85
2021/08/04 15:37:21;;;;;;;0.15;0.15;;;;;;;16.38;82.20;100846.63;5039091;28;20049;-87
2021/08/04 15:39:56;;;;;;;0.10;0.10;;;;;;;16.45;82.70;100829.69;5040959;28;20049;-85
2021/08/04 15:42:31;;;;;;;0.20;0.20;;;;;;;16.54;82.56;100836.03;5053826;28;20053;-85
2021/08/04 15:45:06;;;;;;;0.10;0.10;;;;;;;16.53;82.13;100830.84;5040898;28;20041;-86
2021/08/04 15:47:45;;;;;;;0.20;0.20;;;;;;;16.59;81.70;100837.84;5037148;28;20038;-86
2021/08/04 15:50:18;;;;;;;0.10;0.10;;;;;;;16.46;82.00;100826.63;5047243;28;20049;-86
2021/08/04 15:52:46;;;;;;;0.20;0.20;;;;;;;16.58;82.48;100836.22;5045382;28;20064;-86
2021/08/04 15:55:19;;;;;;;0.20;0.20;;;;;;;16.63;82.11;100830.59;5042710;28;20465;-86
2021/08/04 15:57:53;;;;;;;0.10;0.10;;;;;;;16.79;82.04;100831.78;5039845;28;20119;-86
2021/08/04 16:00:27;;;;;;;0.10;0.10;;;;;;;16.90;82.39;100817.75;5055469;28;20060;-85
2021/08/04 16:02:56;;;;;;;0.10;0.10;;;;;;;17.06;81.36;100827.19;5039609;28;20049;-87
2021/08/04 16:05:29;;;;;;;0.20;0.20;;;;;;;16.98;81.11;100816.97;5037750;28;20045;-87
2021/08/04 16:08:02;;;;;;;0.20;0.20;;;;;;;17.15;81.73;100814.25;5036472;28;20482;-85
2021/08/04 16:10:35;;;;;;;0.15;0.15;;;;;;;17.26;79.39;100809.28;5043585;28;20048;-85
2021/08/04 16:13:09;;;;;;;0.10;0.10;;;;;;;17.31;79.31;100806.34;5034989;28;20057;-86
2021/08/04 16:15:44;;;;;;;0.13;0.13;;;;;;;17.28;81.21;100809.75;5041537;28;20056;-87
2021/08/04 16:18:17;;;;;;;0.10;0.10;;;;;;;17.30;79.96;100804.75;5036555;28;20053;-86
2021/08/04 16:20:46;;;;;;;0.10;0.10;;;;;;;17.20;78.62;100809.75;5017194;28;20049;-85
2021/08/04 16:23:19;;;;;;;0.10;0.10;;;;;;;17.27;78.94;100797.13;5031616;28;20055;-85
2021/08/04 16:25:57;;;;;;;0.10;0.10;;;;;;;17.21;78.32;100803.91;5043321;28;20050;-84
2021/08/04 16:28:26;;;;;;;0.10;0.10;;;;;;;17.19;78.73;100800.66;5019838;28;20057;-85
2021/08/04 16:31:01;;;;;;;0.10;0.10;;;;;;;17.27;78.19;100796.31;5022549;28;20049;-84
2021/08/04 16:33:36;;;;;;;0.10;0.10;;;;;;;17.16;77.98;100787.56;5021740;28;20068;-86
2021/08/04 16:36:09;;;;;;;0.20;0.20;;;;;;;17.10;78.02;100789.66;5023290;28;20064;-83
2021/08/04 16:38:43;;;;;;;0.10;0.10;;;;;;;16.99;79.01;100783.66;5022144;28;20057;-85
2021/08/04 16:41:16;;;;;;;0.10;0.10;;;;;;;16.98;79.49;100781.22;5013235;28;20489;-85
2021/08/04 16:43:50;;;;;;;0.20;0.20;;;;;;;16.93;79.29;100784.94;5012347;28;20561;-86
2021/08/04 16:46:25;;;;;;;0.10;0.10;;;;;;;16.83;79.23;100782.47;5010399;28;20591;-83
2021/08/04 16:48:59;;;;;;;0.10;0.10;;;;;;;16.95;79.03;100771.69;5014712;28;20673;-85
2021/08/04 16:51:32;;;;;;;0.10;0.10;;;;;;;16.82;79.70;100783.56;5006526;28;20045;-86
2021/08/04 16:54:08;;;;;;;0.15;0.10;;;;;;;16.75;80.03;100777.75;5010996;28;20058;-85
2021/08/04 16:56:41;;;;;;;0.10;0.10;;;;;;;16.88;80.65;100776.03;5014621;28;20076;-83
2021/08/04 16:59:20;;;;;;;0.10;0.10;;;;;;;16.89;80.21;100772.16;5009421;28;20382;-82
2021/08/04 17:01:54;;;;;;;0.10;0.10;;;;;;;17.06;80.56;100765.88;5006363;28;20064;-87
2021/08/04 17:04:23;;;;;;;0.10;0.10;;;;;;;16.98;80.37;100771.03;5005706;28;20060;-85
2021/08/04 17:06:52;;;;;;;0.20;0.20;;;;;;;17.08;79.90;100758.94;5002401;28;20058;-87
2021/08/04 17:09:25;;;;;;;0.10;0.10;;;;;;;17.07;79.67;100765.56;5011103;28;20531;-86
2021/08/04 17:11:58;;;;;;;0.20;0.20;;;;;;;16.92;79.81;100766.84;5003295;28;20546;-83
2021/08/04 17:14:27;;;;;;;0.20;0.20;;;;;;;16.82;81.01;100765.16;5008812;28;20404;-86
2021/08/04 17:17:02;;;;;;;0.10;0.10;;;;;;;16.81;80.46;100766.28;5003349;28;20057;-87
2021/08/04 17:19:37;;;;;;;0.10;0.10;;;;;;;16.70;81.14;100764.19;5006435;28;20042;-84
2021/08/04 17:22:12;;;;;;;0.10;0.10;;;;;;;16.58;81.38;100768.31;4989466;28;20066;-86
2021/08/04 17:24:45;;;;;;;0.20;0.20;;;;;;;16.58;81.22;100760.09;5002253;28;20050;-86
2021/08/04 17:27:18;;;;;;;0.10;0.10;;;;;;;16.54;82.26;100767.34;5005703;28;20060;-86
2021/08/04 17:29:52;;;;;;;0.20;0.20;;;;;;;16.49;82.34;100764.75;5005197;28;20586;-85
2021/08/04 17:32:26;;;;;;;0.20;0.20;;;;;;;16.48;82.51;100776.88;5003244;28;20053;-84
2021/08/04 17:34:59;;;;;;;0.35;0.20;;;;;;;16.48;82.81;100769.41;5008233;28;20045;-87
2021/08/04 17:37:33;;;;;;;0.20;0.20;;;;;;;16.40;82.35;100767.44;5010838;28;20061;-84
2021/08/04 17:40:07;;;;;;;0.10;0.10;;;;;;;16.44;82.35;100765.69;5002958;28;20057;-84
2021/08/04 17:42:40;;;;;;;0.13;0.13;;;;;;;16.42;82.75;100764.38;5012101;28;20061;-84
2021/08/04 17:45:15;;;;;;;0.10;0.10;;;;;;;16.30;83.47;100776.78;5003983;28;20054;-84
2021/08/04 17:47:49;;;;;;;0.10;0.10;;;;;;;16.31;83.04;100767.44;5003570;28;20673;-86
2021/08/04 17:50:23;;;;;;;0.10;0.10;;;;;;;16.23;82.96;100770.94;5019195;28;20058;-86
2021/08/04 17:52:56;;;;;;;0.10;0.10;;;;;;;16.41;82.17;100765.53;5004852;28;20060;-87
2021/08/04 17:55:24;;;;;;;0.20;0.20;;;;;;;16.24;83.34;100767.09;5006081;28;20085;-84
2021/08/04 17:57:59;;;;;;;0.10;0.10;;;;;;;16.25;83.45;100771.41;5003917;28;20050;-83
2021/08/04 18:00:33;;;;;;;0.10;0.10;;;;;;;16.25;82.33;100774.16;5003947;28;20064;-83
2021/08/04 18:03:03;;;;;;;0.10;0.10;;;;;;;16.09;82.90;100773.00;5001256;28;20057;-85
2021/08/04 18:05:36;;;;;;;0.10;0.10;;;;;;;16.16;82.41;100770.59;5001273;28;20061;-85
2021/08/04 18:08:06;;;;;;;0.10;0.10;;;;;;;16.19;81.60;100766.41;5000125;28;20062;-83
2021/08/04 18:10:39;;;;;;;0.10;0.10;;;;;;;16.05;81.81;100759.06;5008954;28;20054;-86
2021/08/04 18:13:12;;;;;;;0.10;0.10;;;;;;;16.08;82.32;100779.59;5003331;28;20049;-86
2021/08/04 18:15:42;;;;;;;0.10;0.10;;;;;;;16.09;82.45;100771.03;5000533;28;20065;-85
2021/08/04 18:18:17;;;;;;;0.20;0.20;;;;;;;15.92;82.88;100760.78;4999203;28;20057;-84
2021/08/04 18:20:51;;;;;;;0.10;0.10;;;;;;;16.00;82.71;100775.66;4985812;28;20062;-82
2021/08/04 18:23:24;;;;;;;0.17;0.17;;;;;;;16.08;82.17;100777.66;4985279;28;20050;-83
2021/08/04 18:25:58;;;;;;;0.20;0.20;;;;;;;16.09;81.40;100775.72;4987929;28;20053;-87
2021/08/04 18:28:31;;;;;;;0.10;0.10;;;;;;;15.91;82.24;100777.53;4981659;28;20053;-86
2021/08/04 18:31:04;;;;;;;0.10;0.10;;;;;;;15.97;83.00;100774.34;4980326;28;20042;-84
2021/08/04 18:33:39;;;;;;;0.10;0.10;;;;;;;15.96;81.14;100777.41;4977997;28;20073;-85
2021/08/04 18:36:12;;;;;;;0.10;0.10;;;;;;;15.91;81.69;100785.78;4980185;28;21031;-86
2021/08/04 18:38:41;;;;;;;0.10;0.10;;;;;;;15.86;81.70;100783.19;4981713;28;20072;-82
2021/08/04 18:41:14;;;;;;;0.10;0.10;;;;;;;15.79;81.10;100780.84;4986800;28;20411;-86
2021/08/04 18:43:42;;;;;;;0.10;0.10;;;;;;;15.85;81.07;100782.34;4982070;28;20049;-87
2021/08/04 18:46:16;;;;;;;0.10;0.10;;;;;;;15.80;81.39;100779.75;4983268;28;20061;-87
2021/08/04 18:48:45;;;;;;;0.20;0.20;;;;;;;15.76;81.71;100778.72;4983531;28;20053;-87
2021/08/04 18:51:19;;;;;;;0.10;0.10;;;;;;;15.65;81.82;100778.97;4988865;28;20050;-87
2021/08/04 18:53:53;;;;;;;0.10;0.10;;;;;;;15.66;82.60;100785.28;4982747;28;20058;-85
2021/08/04 18:56:26;;;;;;;0.10;0.10;;;;;;;15.53;82.62;100781.44;4981170;28;20762;-84
2021/08/04 18:58:54;;;;;;;0.10;0.10;;;;;;;15.58;82.75;100783.28;4982218;28;20073;-85
2021/08/04 19:01:27;;;;;;;0.10;0.10;;;;;;;15.65;81.24;100783.66;4991643;28;20057;-86
2021/08/04 19:04:02;;;;;;;0.10;0.10;;;;;;;15.74;81.55;100791.94;4983506;28;20065;-84
2021/08/04 19:06:36;;;;;;;0.10;0.10;;;;;;;15.64;81.63;100799.28;4983056;28;20065;-86
2021/08/04 19:09:10;;;;;;;0.10;0.10;;;;;;;15.59;82.68;100796.69;4981464;28;20054;-88
2021/08/04 19:11:43;;;;;;;0.10;0.10;;;;;;;15.49;82.37;100794.16;4987934;28;20062;-85
2021/08/04 19:14:16;;;;;;;0.20;0.20;;;;;;;15.46;82.68;100800.28;4980721;28;20134;-87
2021/08/04 19:16:49;;;;;;;0.10;0.10;;;;;;;15.52;82.26;100799.03;4983800;28;20534;-83
2021/08/04 19:19:20;;;;;;;0.10;0.10;;;;;;;15.43;83.40;100796.22;4999120;28;20053;-87
2021/08/04 19:21:53;;;;;;;0.13;0.13;;;;;;;15.51;82.08;100802.91;4967247;28;20716;-87
2021/08/04 19:24:26;;;;;;;0.10;0.10;;;;;;;15.47;83.17;100807.38;4993142;28;20065;-83
2021/08/04 19:27:02;;;;;;;0.20;0.20;;;;;;;15.41;84.08;100809.44;4984902;28;20061;-83
2021/08/04 19:29:30;;;;;;;0.10;0.10;;;;;;;15.44;83.46;100814.31;4999093;28;20804;-82
2021/08/04 19:31:58;;;;;;;0.10;0.10;;;;;;;15.38;83.82;100810.03;4988538;28;20046;-86
2021/08/04 19:34:33;;;;;;;0.10;0.10;;;;;;;15.39;84.10;100822.63;5006688;28;20053;-85
2021/08/04 19:37:01;;;;;;;0.10;0.10;;;;;;;15.35;85.24;100816.16;5005301;28;20065;-88
2021/08/04 19:39:34;;;;;;;0.10;0.10;;;;;;;15.39;84.46;100819.09;5024967;28;20170;-87
2021/08/04 19:42:08;;;;;;;0.10;0.10;;;;;;;15.35;84.62;100818.88;5005766;28;20053;-86
2021/08/04 19:44:41;;;;;;;0.10;0.10;;;;;;;15.27;84.71;100814.97;5003519;28;20478;-88
2021/08/04 19:47:14;;;;;;;0.10;0.10;;;;;;;15.26;85.34;100809.75;5008481;28;20053;-88
2021/08/04 19:49:49;;;;;;;0.10;0.10;;;;;;;15.14;84.83;100793.88;5005173;28;20050;-88
2021/08/04 19:52:17;;;;;;;0.20;0.20;;;;;;;15.25;85.32;100808.16;5000818;28;20042;-88
2021/08/04 19:54:50;;;;;;;0.10;0.10;;;;;;;15.23;84.40;100805.72;5004122;28;20062;-86
2021/08/04 19:57:24;;;;;;;0.17;0.17;;;;;;;15.19;84.02;100799.25;5005645;28;20053;-88
2021/08/04 19:59:52;;;;;;;0.10;0.10;;;;;;;15.23;83.72;100807.66;5005087;28;20058;-87
2021/08/04 20:02:21;;;;;;;0.30;0.10;;;;;;;15.20;83.51;100809.06;5001277;28;20054;-86
2021/08/04 20:04:56;;;;;;;0.10;0.10;;;;;;;15.16;84.87;100801.78;5025666;28;20486;-86
2021/08/04 20:07:29;;;;;;;0.10;0.10;;;;;;;15.18;83.65;100808.59;5001463;28;20050;-85
2021/08/04 20:09:58;;;;;;;0.13;0.10;;;;;;;15.21;84.16;100810.69;5001628;28;20046;-87
2021/08/04 20:12:27;;;;;;;0.10;0.10;;;;;;;15.16;83.23;100801.78;4997418;28;20042;-85
2021/08/04 20:15:00;;;;;;;0.10;0.10;;;;;;;15.10;84.11;100799.13;5001255;28;20053;-88
2021/08/04 20:17:36;;;;;;;0.10;0.10;;;;;;;15.04;82.73;100800.38;5021760;28;20054;-88
2021/08/04 20:20:11;;;;;;;0.15;0.15;;;;;;;15.02;82.82;100799.88;5008529;28;20045;-87
2021/08/04 20:22:40;;;;;;;0.10;0.10;;;;;;;15.06;82.98;100798.13;5004649;28;20045;-88
2021/08/04 20:25:17;;;;;;;0.10;0.10;;;;;;;15.06;83.12;100797.34;5002176;28;20046;-88
2021/08/04 20:27:50;;;;;;;0.20;0.20;;;;;;;14.99;83.04;100794.19;5009813;28;20053;-86
2021/08/04 20:30:23;;;;;;;0.10;0.10;;;;;;;14.95;83.32;100800.28;5007386;28;20402;-88
2021/08/04 20:32:53;;;;;;;0.10;0.10;;;;;;;14.85;83.21;100792.28;5001442;28;20050;-88
2021/08/04 20:35:23;;;;;;;0.20;0.20;;;;;;;15.00;83.91;100804.03;5005741;28;20041;-86
2021/08/04 20:37:56;;;;;;;0.10;0.10;;;;;;;14.92;83.21;100800.91;5002527;28;20049;-88
2021/08/04 20:40:25;;;;;;;0.10;0.10;;;;;;;15.00;83.76;100802.13;5010989;28;20046;-88
2021/08/04 20:42:58;;;;;;;0.20;0.20;;;;;;;14.98;83.55;100800.78;5002192;28;20050;-85
2021/08/04 20:45:32;;;;;;;0.10;0.10;;;;;;;15.01;83.30;100801.00;5001794;28;20046;-86
2021/08/04 20:48:00;;;;;;;0.10;0.10;;;;;;;14.96;83.60;100799.16;5007820;28;20046;-87
2021/08/04 20:50:35;;;;;;;0.10;0.10;;;;;;;14.84;84.54;100793.41;5009841;28;20046;-88
2021/08/04 20:53:09;;;;;;;0.10;0.10;;;;;;;14.93;83.91;100794.31;5005776;28;20045;-87
2021/08/04 20:55:39;;;;;;;0.10;0.10;;;;;;;14.87;84.63;100787.28;5018499;28;20377;-87
2021/08/04 20:58:15;;;;;;;0.10;0.10;;;;;;;14.74;85.15;100785.41;5006889;28;20053;-87
2021/08/04 21:01:15;;;;;;;0.10;0.10;;;;;;;14.82;84.28;100792.06;4988745;28;20043;-87
2021/08/04 21:03:47;;;;;;;0.10;0.10;;;;;;;14.78;85.04;100797.38;4995081;28;20677;-86
2021/08/04 21:06:16;;;;;;;0.10;0.10;;;;;;;14.73;84.85;100786.50;5002869;28;20050;-86
2021/08/04 21:08:54;;;;;;;0.10;0.10;;;;;;;14.82;84.53;100790.16;4988012;28;20053;-85
2021/08/04 21:11:23;;;;;;;0.10;0.10;;;;;;;14.84;84.88;100790.66;5003390;28;20073;-85
2021/08/04 21:13:56;;;;;;;0.10;0.10;;;;;;;14.74;84.47;100772.50;4989520;28;20073;-86
2021/08/04 21:16:25;;;;;;;0.20;0.20;;;;;;;14.79;85.35;100786.09;4994063;28;20058;-88
2021/08/04 21:18:58;;;;;;;0.20;0.20;;;;;;;14.73;85.37;100778.28;5007780;28;20054;-87
2021/08/04 21:21:27;;;;;;;0.10;0.10;;;;;;;14.66;85.42;100775.94;4990216;28;20050;-87
2021/08/04 21:24:07;;;;;;;0.10;0.10;;;;;;;14.61;86.49;100782.31;4989484;28;20668;-87
2021/08/04 21:26:44;;;;;;;0.10;0.10;;;;;;;14.62;86.20;100781.25;5000494;28;20058;-86
2021/08/04 21:29:18;;;;;;;0.20;0.20;;;;;;;14.71;86.14;100778.59;4993776;28;20064;-87
2021/08/04 21:31:54;;;;;;;0.10;0.10;;;;;;;14.69;86.21;100775.34;4991578;28;20060;-85
2021/08/04 21:34:29;;;;;;;0.10;0.10;;;;;;;14.55;86.84;100782.72;4992966;28;20054;-86
2021/08/04 21:37:04;;;;;;;0.15;0.15;;;;;;;14.74;86.61;100779.91;4991879;28;20570;-87
2021/08/04 21:39:37;;;;;;;0.17;0.17;;;;;;;14.69;86.17;100758.91;4994047;28;20057;-85
2021/08/04 21:42:10;;;;;;;0.10;0.10;;;;;;;14.57;86.67;100766.78;4989842;28;20054;-85
2021/08/04 21:44:39;;;;;;;0.20;0.20;;;;;;;14.60;87.34;100772.47;5005631;28;20538;-85
2021/08/04 21:47:12;;;;;;;0.10;0.10;;;;;;;14.57;87.71;100775.00;4995623;28;20062;-86
2021/08/04 21:49:48;;;;;;;0.20;0.20;;;;;;;14.68;87.00;100775.66;4993194;28;20502;-86
2021/08/04 21:52:24;;;;;;;0.20;0.20;;;;;;;14.72;86.68;100785.72;4990746;28;20050;-87
2021/08/04 21:54:54;;;;;;;0.10;0.10;;;;;;;14.59;87.13;100784.53;5003910;28;20041;-88
2021/08/04 21:57:28;;;;;;;0.20;0.20;;;;;;;14.54;87.86;100779.19;5006751;28;20041;-89
2021/08/04 21:59:58;;;;;;;0.10;0.10;;;;;;;14.63;87.48;100773.84;5008903;28;20054;-87
2021/08/04 22:02:32;;;;;;;0.20;0.20;;;;;;;14.51;87.83;100781.72;5002545;28;20499;-86
2021/08/04 22:05:03;;;;;;;0.10;0.10;;;;;;;14.60;87.34;100777.16;5008692;28;20637;-87
2021/08/04 22:08:31;;;;;;;0.10;0.10;;;;;;;14.59;87.70;100783.75;5007612;28;20042;-86
2021/08/04 22:11:01;;;;;;;0.20;0.20;;;;;;;14.42;88.72;100774.19;4997929;28;20050;-87
2021/08/04 22:13:34;;;;;;;0.20;0.20;;;;;;;14.43;87.92;100773.09;5001701;28;20037;-87
2021/08/04 22:16:07;;;;;;;0.10;0.10;;;;;;;14.36;88.40;100772.69;4993980;28;20073;-86
2021/08/04 22:18:44;;;;;;;0.13;0.13;;;;;;;14.25;88.56;100766.59;4996393;28;20398;-87
2021/08/04 22:21:18;;;;;;;0.20;0.20;;;;;;;14.26;88.22;100773.66;5007436;28;20046;-86
2021/08/04 22:23:51;;;;;;;0.20;0.20;;;;;;;14.26;88.39;100773.66;5007333;28;20521;-88
2021/08/04 22:26:20;;;;;;;0.10;0.10;;;;;;;14.27;88.05;100764.34;5006924;28;20053;-88
2021/08/04 22:28:53;;;;;;;0.10;0.10;;;;;;;14.24;88.22;100773.19;5009247;28;20046;-87
2021/08/04 22:31:27;;;;;;;0.10;0.10;;;;;;;14.19;88.91;100775.19;5025185;28;20054;-87
2021/08/04 22:34:00;;;;;;;0.10;0.10;;;;;;;14.14;88.13;100778.84;5009683;28;20053;-87
2021/08/04 22:36:33;;;;;;;0.15;0.15;;;;;;;14.04;88.83;100773.53;5001607;28;20050;-87
2021/08/04 22:39:31;;;;;;;0.15;0.15;;;;;;;14.06;89.10;100763.94;5002622;28;20057;-87
2021/08/04 22:42:06;;;;;;;0.10;0.10;;;;;;;14.02;89.98;100759.38;4997712;28;20431;-87
2021/08/04 22:44:39;;;;;;;0.10;0.10;;;;;;;13.92;89.24;100758.44;5007591;28;20060;-87
2021/08/04 22:47:08;;;;;;;0.10;0.10;;;;;;;13.83;89.62;100751.22;5004295;28;20058;-86
2021/08/04 22:49:36;;;;;;;0.10;0.10;;;;;;;13.83;89.81;100759.41;5006498;28;20049;-88
2021/08/04 22:52:09;;;;;;;0.10;0.10;;;;;;;13.80;89.90;100758.09;5006442;28;20490;-87
2021/08/04 22:54:42;;;;;;;0.10;0.10;;;;;;;13.82;90.05;100757.78;5003936;28;20052;-87
2021/08/04 22:58:14;;;;;;;0.10;0.10;;;;;;;13.81;90.06;100759.72;4994766;28;20660;-88
2021/08/04 23:00:50;;;;;;;0.10;0.10;;;;;;;13.76;90.29;100757.88;5001916;28;20054;-87
2021/08/04 23:03:24;;;;;;;0.10;0.10;;;;;;;13.80;89.81;100749.88;4995606;28;20038;-87
2021/08/04 23:05:57;;;;;;;0.10;0.10;;;;;;;13.78;90.27;100754.81;4998342;28;20058;-87
2021/08/04 23:08:26;;;;;;;0.10;0.10;;;;;;;13.81;90.04;100759.72;5024686;28;20061;-88
2021/08/04 23:10:54;;;;;;;0.20;0.20;;;;;;;13.74;90.06;100745.59;5009539;28;20042;-88
2021/08/04 23:13:28;;;;;;;0.10;0.10;;;;;;;13.81;89.84;100761.63;5007782;28;20041;-88
2021/08/04 23:16:04;;;;;;;0.10;0.10;;;;;;;13.87;89.57;100761.25;5021483;28;20050;-87
2021/08/04 23:18:38;;;;;;;0.20;0.20;;;;;;;13.77;90.34;100756.75;5008644;28;20058;-88
2021/08/04 23:21:12;;;;;;;0.20;0.20;;;;;;;13.80;90.62;100760.81;4997039;28;20038;-88
2021/08/04 23:23:47;;;;;;;0.10;0.10;;;;;;;13.80;90.94;100758.09;5005682;28;20038;-88
2021/08/04 23:26:21;;;;;;;0.20;0.20;;;;;;;13.71;90.04;100747.03;5019948;28;20053;-88
2021/08/04 23:28:54;;;;;;;0.20;0.20;;;;;;;13.83;89.69;100751.22;4997883;28;20573;-87
2021/08/04 23:31:31;;;;;;;0.13;0.10;;;;;;;13.94;88.89;100742.50;5003912;28;20059;-89
2021/08/04 23:34:04;;;;;;;0.20;0.20;;;;;;;14.22;85.63;100745.28;5007535;28;20050;-87
2021/08/04 23:36:46;;;;;;;0.10;0.10;;;;;;;13.99;87.92;100755.31;5004255;28;20057;-88
2021/08/04 23:39:22;;;;;;;0.20;0.20;;;;;;;14.11;85.59;100746.59;5003345;28;20058;-88
2021/08/04 23:41:56;;;;;;;0.10;0.10;;;;;;;14.00;85.94;100732.28;4994805;28;20050;-87
2021/08/04 23:44:29;;;;;;;0.25;0.20;;;;;;;14.16;85.71;100742.97;5005921;28;20061;-88
2021/08/04 23:47:05;;;;;;;0.20;0.20;;;;;;;13.94;87.06;100736.22;4995651;28;20054;-88
2021/08/04 23:49:36;;;;;;;0.20;0.20;;;;;;;13.98;87.29;100745.47;5008043;28;20061;-88
2021/08/04 23:52:09;;;;;;;0.20;0.20;;;;;;;14.12;85.46;100740.00;4999537;28;20050;-90
2021/08/04 23:54:38;;;;;;;0.20;0.20;;;;;;;14.09;86.45;100741.44;5003363;28;20387;-87
2021/08/04 23:57:11;;;;;;;0.20;0.20;;;;;;;14.04;85.46;100730.56;5007547;28;20046;-87
2021/08/04 23:59:39;;;;;;;0.20;0.20;;;;;;;14.10;85.25;100731.31;5002751;28;20058;-88
